Time,TemperatureF,DewpointF,PressureIn,WindDirection,WindDirectionDegrees,WindSpeedMPH,WindSpeedGustMPH,Humidity,HourlyPrecipIn,Conditions,Clouds,dailyrainin,SoftwareType,DateUTC
2013-02-07 00:02:00,35.0,35.0,-100.00,SE,140,6.0,9.0,99,0.00,,,-99.99,,2013-02-07 06:02:00,
2013-02-07 00:11:00,35.0,35.0,-100.00,SE,140,6.0,9.0,99,0.00,,,-99.99,,2013-02-07 06:11:00,
2013-02-07 00:22:00,35.0,35.0,-100.00,SE,140,6.0,9.0,99,0.00,,,-99.99,,2013-02-07 06:22:00,
2013-02-07 00:32:00,34.0,34.0,-100.00,SE,145,6.0,9.0,99,0.00,,,-99.99,,2013-02-07 06:32:00,
2013-02-07 00:43:00,34.0,34.0,-100.00,SE,145,6.0,9.0,99,0.00,,,-99.99,,2013-02-07 06:43:00,
2013-02-07 00:52:00,34.0,34.0,-100.00,SE,145,6.0,7.0,99,0.00,,,-99.99,,2013-02-07 06:52:00,
2013-02-07 01:01:00,34.0,34.0,-100.00,SE,145,6.0,7.0,99,0.00,,,-99.99,,2013-02-07 07:01:00,
2013-02-07 01:11:00,34.0,34.0,-100.00,SE,145,6.0,7.0,99,0.00,,,-99.99,,2013-02-07 07:11:00,
2013-02-07 01:22:00,34.0,34.0,-100.00,SE,145,5.0,7.0,99,0.00,,,-99.99,,2013-02-07 07:22:00,
2013-02-07 01:32:00,34.0,34.0,-100.00,SSE,150,4.0,5.0,99,0.00,,,-99.99,,2013-02-07 07:32:00,
2013-02-07 01:41:00,35.0,35.0,-100.00,SSE,150,6.0,7.0,99,0.00,,,-99.99,,2013-02-07 07:41:00,
2013-02-07 01:52:00,35.0,35.0,-100.00,SSE,160,5.0,7.0,99,0.00,,,-99.99,,2013-02-07 07:52:00,
2013-02-07 02:01:00,35.0,35.0,-100.00,SSE,150,4.0,6.0,99,0.00,,,-99.99,,2013-02-07 08:01:00,
2013-02-07 02:11:00,35.0,35.0,-100.00,SSE,155,4.0,5.0,99,0.00,,,-99.99,,2013-02-07 08:11:00,
2013-02-07 02:21:00,35.0,35.0,-100.00,SSE,155,4.0,5.0,99,0.00,,,-99.99,,2013-02-07 08:21:00,
2013-02-07 02:32:00,35.0,35.0,-100.00,SSE,160,6.0,7.0,99,0.00,,,-99.99,,2013-02-07 08:32:00,
2013-02-07 02:42:00,35.0,35.0,-100.00,SSE,160,6.0,7.0,99,0.00,,,-99.99,,2013-02-07 08:42:00,
2013-02-07 02:52:00,35.0,35.0,-100.00,SSE,165,7.0,9.0,99,0.00,,,-99.99,,2013-02-07 08:52:00,
2013-02-07 03:01:00,35.0,35.0,-100.00,SSE,165,7.0,9.0,99,0.00,,,-99.99,,2013-02-07 09:01:00,
2013-02-07 03:11:00,35.0,35.0,-100.00,SSE,160,5.0,7.0,99,0.00,,,-99.99,,2013-02-07 09:11:00,
2013-02-07 03:21:00,35.0,35.0,-100.00,SSE,160,5.0,7.0,99,0.00,,,-99.99,,2013-02-07 09:21:00,
2013-02-07 03:32:00,35.0,35.0,-100.00,SSE,150,5.0,7.0,99,0.00,,,-99.99,,2013-02-07 09:32:00,
2013-02-07 03:41:00,35.0,35.0,-100.00,SSE,160,5.0,7.0,99,0.00,,,-99.99,,2013-02-07 09:41:00,
2013-02-07 03:51:00,35.0,35.0,-100.00,SSE,160,4.0,6.0,99,0.00,,,-99.99,,2013-02-07 09:51:00,
2013-02-07 04:01:00,35.0,35.0,-100.00,SSE,160,5.0,6.0,99,0.17,,,-99.99,,2013-02-07 10:01:00,
2013-02-07 04:11:00,35.0,35.0,-100.00,SSE,160,6.0,6.0,99,0.16,,,-99.99,,2013-02-07 10:11:00,
2013-02-07 04:22:00,35.0,35.0,-100.00,SSE,160,6.0,6.0,99,0.16,,,-99.99,,2013-02-07 10:22:00,
2013-02-07 04:32:00,35.0,35.0,-100.00,SSE,160,6.0,9.0,99,0.21,,,-99.99,,2013-02-07 10:32:00,
2013-02-07 04:41:00,35.0,35.0,-100.00,SSE,155,2.0,6.0,99,0.20,,,-99.99,,2013-02-07 10:41:00,
2013-02-07 04:51:00,35.0,35.0,-100.00,SE,145,2.0,3.0,99,0.23,,,-99.99,,2013-02-07 10:51:00,
2013-02-07 05:01:00,35.0,35.0,-100.00,ESE,115,3.0,4.0,99,0.17,,,-99.99,,2013-02-07 11:01:00,
2013-02-07 05:11:00,35.0,35.0,-100.00,ESE,115,3.0,4.0,99,0.17,,,-99.99,,2013-02-07 11:11:00,
2013-02-07 05:22:00,35.0,35.0,-100.00,ESE,115,3.0,4.0,99,0.17,,,-99.99,,2013-02-07 11:22:00,
2013-02-07 05:32:00,35.0,35.0,-100.00,ESE,120,2.0,2.0,99,0.20,,,-99.99,,2013-02-07 11:32:00,
2013-02-07 05:44:00,35.0,35.0,-100.00,ESE,115,3.0,4.0,99,0.18,,,-99.99,,2013-02-07 11:44:00,
2013-02-07 05:52:00,35.0,35.0,-100.00,SE,145,3.0,4.0,99,0.21,,,-99.99,,2013-02-07 11:52:00,
2013-02-07 06:02:00,35.0,35.0,-100.00,SE,140,6.0,6.0,99,0.24,,,-99.99,,2013-02-07 12:02:00,
2013-02-07 06:11:00,35.0,35.0,-100.00,SE,135,5.0,6.0,99,0.21,,,-99.99,,2013-02-07 12:11:00,
2013-02-07 06:22:00,35.0,35.0,-100.00,SE,135,5.0,6.0,99,0.21,,,-99.99,,2013-02-07 12:22:00,
2013-02-07 06:32:00,35.0,35.0,-100.00,SE,145,3.0,4.0,99,0.14,,,-99.99,,2013-02-07 12:32:00,
2013-02-07 06:42:00,35.0,35.0,-100.00,ESE,105,2.0,4.0,99,0.20,,,-99.99,,2013-02-07 12:42:00,
2013-02-07 06:52:00,35.0,35.0,-100.00,SE,145,2.0,4.0,99,0.10,,,-99.99,,2013-02-07 12:52:00,
2013-02-07 07:02:00,35.0,35.0,-100.00,SE,125,2.0,3.0,99,0.11,,,-99.99,,2013-02-07 13:02:00,
2013-02-07 07:12:00,35.0,35.0,-100.00,SE,140,2.0,4.0,99,0.08,,,-99.99,,2013-02-07 13:12:00,
2013-02-07 07:22:00,35.0,35.0,-100.00,SSE,150,3.0,4.0,99,0.21,,,-99.99,,2013-02-07 13:22:00,
2013-02-07 07:32:00,35.0,35.0,-100.00,SE,145,3.0,5.0,99,0.20,,,-99.99,,2013-02-07 13:32:00,
2013-02-07 07:42:00,35.0,35.0,-100.00,SSE,155,3.0,4.0,99,0.20,,,-99.99,,2013-02-07 13:42:00,
2013-02-07 07:51:00,35.0,35.0,-100.00,SSE,155,2.0,4.0,99,0.24,,,-99.99,,2013-02-07 13:51:00,
2013-02-07 08:01:00,35.0,35.0,-100.00,SE,125,1.0,2.0,99,0.24,,,-99.99,,2013-02-07 14:01:00,
2013-02-07 08:11:00,35.0,35.0,-100.00,SE,125,1.0,2.0,99,0.24,,,-99.99,,2013-02-07 14:11:00,
2013-02-07 08:21:00,35.0,35.0,-100.00,SE,130,1.0,2.0,99,0.21,,,-99.99,,2013-02-07 14:21:00,
2013-02-07 08:32:00,35.0,35.0,-100.00,SE,130,1.0,1.0,99,0.18,,,-99.99,,2013-02-07 14:32:00,
2013-02-07 08:42:00,35.0,35.0,-100.00,NW,310,2.0,2.0,99,0.18,,,-99.99,,2013-02-07 14:42:00,
2013-02-07 08:52:00,35.0,35.0,-100.00,NW,310,1.0,2.0,99,0.18,,,-99.99,,2013-02-07 14:52:00,
2013-02-07 09:02:00,34.0,34.0,-100.00,NW,325,2.0,2.0,99,0.23,,,-99.99,,2013-02-07 15:02:00,
2013-02-07 09:11:00,34.0,34.0,-100.00,NW,325,2.0,2.0,99,0.23,,,-99.99,,2013-02-07 15:11:00,
2013-02-07 09:22:00,34.0,34.0,-100.00,NW,310,2.0,3.0,99,0.24,,,-99.99,,2013-02-07 15:22:00,
2013-02-07 09:32:00,34.0,34.0,-100.00,NW,310,3.0,4.0,99,0.25,,,-99.99,,2013-02-07 15:32:00,
2013-02-07 09:42:00,34.0,34.0,-100.00,NW,310,3.0,4.0,99,0.25,,,-99.99,,2013-02-07 15:42:00,
2013-02-07 09:52:00,34.0,34.0,-100.00,NNW,330,4.0,5.0,99,0.24,,,-99.99,,2013-02-07 15:52:00,
2013-02-07 10:01:00,34.0,34.0,-100.00,NNW,335,3.0,5.0,99,0.27,,,-99.99,,2013-02-07 16:01:00,
2013-02-07 10:11:00,34.0,34.0,-100.00,North,350,2.0,4.0,99,0.25,,,-99.99,,2013-02-07 16:11:00,
2013-02-07 10:21:00,34.0,34.0,-100.00,NNW,340,2.0,3.0,99,0.23,,,-99.99,,2013-02-07 16:21:00,
2013-02-07 10:32:00,34.0,34.0,-100.00,NNW,340,2.0,3.0,99,0.23,,,-99.99,,2013-02-07 16:32:00,
2013-02-07 10:42:00,34.0,34.0,-100.00,NNW,335,7.0,9.0,99,0.37,,,-99.99,,2013-02-07 16:42:00,
2013-02-07 10:52:00,35.0,35.0,-100.00,North,0,6.0,9.0,99,0.43,,,-99.99,,2013-02-07 16:52:00,
2013-02-07 11:01:00,35.0,35.0,-100.00,North,350,6.0,9.0,99,0.50,,,-99.99,,2013-02-07 17:01:00,
2013-02-07 11:11:00,35.0,35.0,-100.00,North,350,10.0,11.0,99,0.51,,,-99.99,,2013-02-07 17:11:00,
2013-02-07 11:21:00,35.0,35.0,-100.00,NNW,345,9.0,10.0,99,0.72,,,-99.99,,2013-02-07 17:21:00,
2013-02-07 11:32:00,35.0,35.0,-100.00,North,350,9.0,11.0,99,0.54,,,-99.99,,2013-02-07 17:32:00,
2013-02-07 11:43:00,35.0,35.0,-100.00,North,5,9.0,10.0,99,0.64,,,-99.99,,2013-02-07 17:43:00,
2013-02-07 11:52:00,35.0,35.0,-100.00,North,350,9.0,12.0,99,0.50,,,-99.99,,2013-02-07 17:52:00,
2013-02-07 12:01:00,35.0,35.0,-100.00,North,350,9.0,11.0,99,0.57,,,-99.99,,2013-02-07 18:01:00,
2013-02-07 12:11:00,35.0,35.0,-100.00,North,350,9.0,12.0,99,0.48,,,-99.99,,2013-02-07 18:11:00,
2013-02-07 12:23:00,35.0,35.0,-100.00,NNW,345,9.0,12.0,99,0.43,,,-99.99,,2013-02-07 18:23:00,
2013-02-07 12:32:00,35.0,35.0,-100.00,NNW,340,7.0,12.0,99,0.34,,,-99.99,,2013-02-07 18:32:00,
2013-02-07 12:42:00,35.0,35.0,-100.00,NNW,340,8.0,12.0,99,0.38,,,-99.99,,2013-02-07 18:42:00,
2013-02-07 12:51:00,35.0,35.0,-100.00,NNW,340,13.0,15.0,99,0.33,,,-99.99,,2013-02-07 18:51:00,
2013-02-07 13:01:00,35.0,35.0,-100.00,NNW,335,13.0,16.0,99,0.38,,,-99.99,,2013-02-07 19:01:00,
2013-02-07 13:11:00,35.0,35.0,-100.00,NW,325,12.0,15.0,99,0.37,,,-99.99,,2013-02-07 19:11:00,
2013-02-07 13:22:00,35.0,35.0,-100.00,NNW,330,9.0,14.0,99,0.55,,,-99.99,,2013-02-07 19:22:00,
2013-02-07 13:32:00,35.0,35.0,-100.00,NNW,330,11.0,16.0,99,0.52,,,-99.99,,2013-02-07 19:32:00,
2013-02-07 13:42:00,35.0,35.0,-100.00,NNW,330,12.0,16.0,99,0.33,,,-99.99,,2013-02-07 19:42:00,
2013-02-07 13:52:00,35.0,35.0,-100.00,NW,320,13.0,16.0,99,0.27,,,-99.99,,2013-02-07 19:52:00,
2013-02-07 14:01:00,35.0,35.0,-100.00,NW,325,12.0,17.0,99,0.18,,,-99.99,,2013-02-07 20:01:00,
2013-02-07 14:11:00,35.0,35.0,-100.00,NW,325,11.0,14.0,99,0.23,,,-99.99,,2013-02-07 20:11:00,
2013-02-07 14:21:00,35.0,35.0,-100.00,NW,325,11.0,14.0,99,0.23,,,-99.99,,2013-02-07 20:21:00,
2013-02-07 14:31:00,34.0,34.0,-100.00,NW,320,12.0,16.0,99,0.27,,,-99.99,,2013-02-07 20:31:00,
2013-02-07 14:42:00,34.0,34.0,-100.00,NW,325,12.0,17.0,99,0.25,,,-99.99,,2013-02-07 20:42:00,
2013-02-07 14:52:00,34.0,34.0,-100.00,NNW,330,12.0,17.0,99,0.24,,,-99.99,,2013-02-07 20:52:00,
2013-02-07 15:02:00,34.0,34.0,-100.00,NW,325,13.0,17.0,99,0.00,,,-99.99,,2013-02-07 21:02:00,
2013-02-07 15:11:00,34.0,34.0,-100.00,NW,325,14.0,17.0,99,0.00,,,-99.99,,2013-02-07 21:11:00,
2013-02-07 15:21:00,34.0,34.0,-100.00,NW,320,15.0,21.0,99,0.00,,,-99.99,,2013-02-07 21:21:00,
2013-02-07 15:32:00,34.0,34.0,-100.00,NW,325,14.0,21.0,99,0.00,,,-99.99,,2013-02-07 21:32:00,
2013-02-07 15:42:00,34.0,34.0,-100.00,NW,325,14.0,21.0,99,0.00,,,-99.99,,2013-02-07 21:42:00,
2013-02-07 15:51:00,33.0,33.0,-100.00,NW,325,16.0,24.0,99,0.00,,,-99.99,,2013-02-07 21:51:00,
2013-02-07 16:02:00,33.0,33.0,-100.00,NW,325,18.0,21.0,99,0.00,,,-99.99,,2013-02-07 22:02:00,
2013-02-07 16:11:00,33.0,33.0,-100.00,NW,325,17.0,21.0,99,0.00,,,-99.99,,2013-02-07 22:11:00,
2013-02-07 16:21:00,32.0,32.0,-100.00,NW,325,17.0,22.0,99,0.00,,,-99.99,,2013-02-07 22:21:00,
2013-02-07 16:32:00,32.0,32.0,-100.00,NW,325,17.0,21.0,99,0.00,,,-99.99,,2013-02-07 22:32:00,
2013-02-07 16:42:00,32.0,32.0,-100.00,NW,325,17.0,23.0,99,0.00,,,-99.99,,2013-02-07 22:42:00,
2013-02-07 16:51:00,32.0,32.0,-100.00,NW,320,19.0,22.0,99,0.00,,,-99.99,,2013-02-07 22:51:00,
2013-02-07 17:01:00,31.0,31.0,-100.00,NW,325,19.0,24.0,99,0.00,,,-99.99,,2013-02-07 23:01:00,
2013-02-07 17:11:00,31.0,31.0,-100.00,NNW,330,16.0,23.0,99,0.00,,,-99.99,,2013-02-07 23:11:00,
2013-02-07 17:21:00,31.0,31.0,-100.00,NW,325,18.0,22.0,99,0.00,,,-99.99,,2013-02-07 23:21:00,
2013-02-07 17:32:00,31.0,31.0,-100.00,NW,320,19.0,25.0,99,0.00,,,-99.99,,2013-02-07 23:32:00,
2013-02-07 17:42:00,31.0,31.0,-100.00,NW,325,21.0,29.0,99,0.00,,,-99.99,,2013-02-07 23:42:00,
2013-02-07 17:52:00,31.0,31.0,-100.00,NW,320,21.0,28.0,99,0.00,,,-99.99,,2013-02-07 23:52:00,
2013-02-07 18:01:00,31.0,31.0,-100.00,NW,315,21.0,26.0,99,0.00,,,-99.99,,2013-02-08 00:01:00,
2013-02-07 18:11:00,31.0,31.0,-100.00,NW,325,22.0,28.0,99,0.00,,,-99.99,,2013-02-08 00:11:00,
2013-02-07 18:21:00,31.0,31.0,-100.00,NW,325,22.0,27.0,99,0.00,,,-99.99,,2013-02-08 00:21:00,
2013-02-07 18:32:00,31.0,31.0,-100.00,NW,325,22.0,27.0,99,0.00,,,-99.99,,2013-02-08 00:32:00,
2013-02-07 18:42:00,30.0,30.0,-100.00,NW,325,22.0,29.0,99,0.00,,,-99.99,,2013-02-08 00:42:00,
2013-02-07 18:53:00,31.0,-99.9,-100.00,NNW,330,19.0,27.0,-999,0.00,,,-99.99,,2013-02-08 00:53:00,
2013-02-07 19:02:00,31.0,-99.9,-100.00,NNW,330,19.0,27.0,-999,0.00,,,-99.99,,2013-02-08 01:02:00,
2013-02-07 19:11:00,30.0,30.0,-100.00,NNW,330,21.0,26.0,99,0.00,,,-99.99,,2013-02-08 01:11:00,
2013-02-07 19:21:00,30.0,30.0,-100.00,NNW,330,21.0,26.0,99,0.00,,,-99.99,,2013-02-08 01:21:00,
2013-02-07 19:31:00,30.0,30.0,-100.00,NW,325,16.0,22.0,99,0.00,,,-99.99,,2013-02-08 01:31:00,
2013-02-07 19:41:00,30.0,30.0,-100.00,NNW,335,22.0,27.0,99,0.00,,,-99.99,,2013-02-08 01:41:00,
2013-02-07 19:51:00,30.0,30.0,-100.00,NW,325,19.0,24.0,99,0.00,,,-99.99,,2013-02-08 01:51:00,
2013-02-07 20:01:00,30.0,30.0,-100.00,NW,325,21.0,24.0,99,0.00,,,-99.99,,2013-02-08 02:01:00,
2013-02-07 20:11:00,30.0,30.0,-100.00,NW,325,19.0,24.0,99,0.00,,,-99.99,,2013-02-08 02:11:00,
2013-02-07 20:21:00,30.0,30.0,-100.00,NW,325,18.0,24.0,99,0.00,,,-99.99,,2013-02-08 02:21:00,
2013-02-07 20:32:00,30.0,30.0,-100.00,NW,325,18.0,24.0,99,0.00,,,-99.99,,2013-02-08 02:32:00,
2013-02-07 20:42:00,30.0,30.0,-100.00,NNW,330,22.0,29.0,99,0.00,,,-99.99,,2013-02-08 02:42:00,
2013-02-07 20:52:00,29.0,29.0,-100.00,NNW,340,21.0,26.0,99,0.00,,,-99.99,,2013-02-08 02:52:00,
2013-02-07 21:01:00,29.0,29.0,-100.00,NNW,340,21.0,26.0,99,0.00,,,-99.99,,2013-02-08 03:01:00,
2013-02-07 21:12:00,29.0,29.0,-100.00,NNW,330,17.0,26.0,99,0.00,,,-99.99,,2013-02-08 03:12:00,
2013-02-07 21:22:00,29.0,29.0,-100.00,NNW,330,17.0,26.0,99,0.00,,,-99.99,,2013-02-08 03:22:00,
2013-02-07 21:32:00,29.0,29.0,-100.00,NNW,340,17.0,24.0,99,0.00,,,-99.99,,2013-02-08 03:32:00,
2013-02-07 21:41:00,29.0,29.0,-100.00,NNW,340,17.0,24.0,99,0.00,,,-99.99,,2013-02-08 03:41:00,
2013-02-07 21:51:00,29.0,29.0,-100.00,NNW,335,17.0,21.0,99,0.00,,,-99.99,,2013-02-08 03:51:00,
2013-02-07 22:01:00,29.0,29.0,-100.00,NNW,335,17.0,21.0,99,0.00,,,-99.99,,2013-02-08 04:01:00,
2013-02-07 22:11:00,29.0,29.0,-100.00,NNW,330,17.0,22.0,99,0.00,,,-99.99,,2013-02-08 04:11:00,
2013-02-07 22:21:00,29.0,29.0,-100.00,NNW,330,17.0,22.0,99,0.00,,,-99.99,,2013-02-08 04:21:00,
2013-02-07 22:32:00,29.0,29.0,-100.00,NNW,335,20.0,26.0,99,0.00,,,-99.99,,2013-02-08 04:32:00,
2013-02-07 22:42:00,29.0,29.0,-100.00,NNW,335,19.0,24.0,99,0.00,,,-99.99,,2013-02-08 04:42:00,
2013-02-07 22:51:00,29.0,29.0,-100.00,NNW,330,20.0,24.0,99,0.00,,,-99.99,,2013-02-08 04:51:00,
2013-02-07 23:02:00,29.0,29.0,-100.00,NNW,340,19.0,25.0,99,0.00,,,-99.99,,2013-02-08 05:02:00,
2013-02-07 23:11:00,29.0,29.0,-100.00,NNW,345,17.0,24.0,99,0.00,,,-99.99,,2013-02-08 05:11:00,
2013-02-07 23:22:00,29.0,29.0,-100.00,NNW,345,17.0,24.0,99,0.00,,,-99.99,,2013-02-08 05:22:00,
2013-02-07 23:32:00,29.0,29.0,-100.00,NNW,335,18.0,21.0,99,0.00,,,-99.99,,2013-02-08 05:32:00,
2013-02-07 23:42:00,29.0,29.0,-100.00,NNW,345,16.0,21.0,99,0.00,,,-99.99,,2013-02-08 05:42:00,
2013-02-07 23:52:00,29.0,29.0,-100.00,NNW,345,16.0,21.0,99,0.00,,,-99.99,,2013-02-08 05:52:00,